Aérodrome :
LOGIN :

S'inscrire | Disclaimer

   EN    FR    IT 

 










Légende :    VFR   VFR Marginal   IFR   IFR Intensif   IFR Très Intensif
Visi : 
Plafond : 
>= 8 km
>= 3000ft
5 à 8 km
1000 à 3000 ft
1500m à 5 km
500 à 1000 ft
800 à 1500m
200 à 500 ft
< 800m
< 200 ft
Symboles :   Orages  Brouillard  Fortes neiges  Fortes précipitations  Vent > 20 kt
SIGMETs :   Divers  Orages  Givrage  Turbulence  Onde Orograph.  Cendres Volcan.







- Altitude de l'aérodrome : 1791 ft
- Code IATA : AOT


LIMW - Aosta

DERNIER METAR :
  • 211120Z AUTO VRB02KT 9999 OVC059/// 17/10 Q1024

METARs EXPIRÉS :
  • 211050Z AUTO 08003KT 030V120 9999 OVC059/// 17/10 Q1024
  • 211020Z AUTO 09006KT 060V120 9999 OVC059/// 17/10 Q1025
  • 210950Z AUTO 11005KT 070V130 9999 OVC061/// 17/10 Q1025
  • 210920Z AUTO 09005KT 060V120 9999 FEW037/// BKN046/// BKN062/// 16/10 Q1025
  • 210850Z AUTO 09006KT 060V130 9999 BKN043/// BKN061/// 16/10 Q1025

TAF TAF LIMW
Valide du 21 à 12h jusqu'au 21 à 21h UTC


211100Z 2112/2121 10015KT 9999 BKN060
BECMG 2119/2121 VRB05KT
Pas de NOTAMs connus pour ce terrain.



MET'MAP, la Météo Aéronautique d'un coup d'oeil ! - Copyright ORBIFLY Décembre 2007 - Disclaimer

ORBIFLY MET'MAP TEAM :

Programmation & Développement : Alexandra Zaïnal
Conception & Développement : Baudouin d'Aumeries
Co-Programmation & Développement : Marc-Olivier Méhu
Soutien technique & logistique : Manuel Goepfert

Contact : metmap@orbifly.com




SOURCES & CREDITS :

   NOAA